sensor_id;sensor_type;location;lat;lon;timestamp;P1;durP1;ratioP1;P2;durP2;ratioP2
70975;SDS011;58635;51.198;6.010;2022-11-15T00:01:08;15.32;;;10.15;;
70975;SDS011;58635;51.198;6.010;2022-11-15T00:03:39;16.33;;;10.15;;
70975;SDS011;58635;51.198;6.010;2022-11-15T00:06:04;13.93;;;9.52;;
70975;SDS011;58635;51.198;6.010;2022-11-15T00:08:30;14.60;;;9.75;;
70975;SDS011;58635;51.198;6.010;2022-11-15T00:10:57;14.38;;;9.77;;
70975;SDS011;58635;51.198;6.010;2022-11-15T00:13:24;13.75;;;10.25;;
70975;SDS011;58635;51.198;6.010;2022-11-15T00:15:49;12.85;;;9.20;;
70975;SDS011;58635;51.198;6.010;2022-11-15T00:18:15;13.57;;;9.45;;
70975;SDS011;58635;51.198;6.010;2022-11-15T00:20:41;12.82;;;9.45;;
70975;SDS011;58635;51.198;6.010;2022-11-15T00:23:06;13.68;;;10.18;;
70975;SDS011;58635;51.198;6.010;2022-11-15T00:25:32;13.05;;;9.13;;
70975;SDS011;58635;51.198;6.010;2022-11-15T00:27:58;14.60;;;9.68;;
70975;SDS011;58635;51.198;6.010;2022-11-15T00:30:24;13.88;;;9.52;;
70975;SDS011;58635;51.198;6.010;2022-11-15T00:32:50;13.20;;;10.00;;
70975;SDS011;58635;51.198;6.010;2022-11-15T00:35:16;15.00;;;9.65;;
70975;SDS011;58635;51.198;6.010;2022-11-15T00:37:41;13.75;;;9.80;;
70975;SDS011;58635;51.198;6.010;2022-11-15T00:40:07;11.85;;;9.40;;
70975;SDS011;58635;51.198;6.010;2022-11-15T00:42:34;14.20;;;9.15;;
70975;SDS011;58635;51.198;6.010;2022-11-15T00:44:59;12.77;;;9.27;;
70975;SDS011;58635;51.198;6.010;2022-11-15T00:47:24;15.52;;;9.45;;
70975;SDS011;58635;51.198;6.010;2022-11-15T00:49:50;12.70;;;10.02;;
70975;SDS011;58635;51.198;6.010;2022-11-15T00:52:15;14.23;;;9.75;;
70975;SDS011;58635;51.198;6.010;2022-11-15T00:54:41;13.05;;;9.23;;
70975;SDS011;58635;51.198;6.010;2022-11-15T00:57:06;14.48;;;9.70;;
70975;SDS011;58635;51.198;6.010;2022-11-15T00:59:31;13.13;;;9.07;;
70975;SDS011;58635;51.198;6.010;2022-11-15T01:01:57;13.20;;;9.75;;
70975;SDS011;58635;51.198;6.010;2022-11-15T01:04:22;13.13;;;9.27;;
70975;SDS011;58635;51.198;6.010;2022-11-15T01:06:48;14.82;;;9.73;;
70975;SDS011;58635;51.198;6.010;2022-11-15T01:09:13;14.10;;;9.35;;
70975;SDS011;58635;51.198;6.010;2022-11-15T01:11:38;14.00;;;9.77;;
70975;SDS011;58635;51.198;6.010;2022-11-15T01:14:04;11.55;;;9.05;;
70975;SDS011;58635;51.198;6.010;2022-11-15T01:16:29;13.25;;;9.82;;
70975;SDS011;58635;51.198;6.010;2022-11-15T01:18:55;14.38;;;9.77;;
70975;SDS011;58635;51.198;6.010;2022-11-15T01:21:20;13.15;;;9.90;;
70975;SDS011;58635;51.198;6.010;2022-11-15T01:23:46;13.90;;;9.98;;
70975;SDS011;58635;51.198;6.010;2022-11-15T01:26:12;12.20;;;9.40;;
70975;SDS011;58635;51.198;6.010;2022-11-15T01:28:40;17.60;;;11.13;;
70975;SDS011;58635;51.198;6.010;2022-11-15T01:31:09;13.52;;;9.40;;
70975;SDS011;58635;51.198;6.010;2022-11-15T01:33:37;15.10;;;9.43;;
70975;SDS011;58635;51.198;6.010;2022-11-15T01:36:06;13.93;;;9.75;;
70975;SDS011;58635;51.198;6.010;2022-11-15T01:38:33;14.45;;;9.10;;
70975;SDS011;58635;51.198;6.010;2022-11-15T01:40:59;12.27;;;9.30;;
70975;SDS011;58635;51.198;6.010;2022-11-15T01:43:26;13.13;;;8.88;;
70975;SDS011;58635;51.198;6.010;2022-11-15T01:45:55;14.32;;;9.85;;
70975;SDS011;58635;51.198;6.010;2022-11-15T01:48:26;15.20;;;9.73;;
70975;SDS011;58635;51.198;6.010;2022-11-15T01:50:57;13.90;;;9.73;;
70975;SDS011;58635;51.198;6.010;2022-11-15T01:53:24;16.25;;;9.65;;
70975;SDS011;58635;51.198;6.010;2022-11-15T01:55:51;13.48;;;9.68;;
70975;SDS011;58635;51.198;6.010;2022-11-15T01:58:18;13.95;;;9.98;;
70975;SDS011;58635;51.198;6.010;2022-11-15T02:00:45;12.93;;;8.82;;
70975;SDS011;58635;51.198;6.010;2022-11-15T02:03:10;14.90;;;9.65;;
70975;SDS011;58635;51.198;6.010;2022-11-15T02:05:36;15.13;;;9.57;;
70975;SDS011;58635;51.198;6.010;2022-11-15T02:08:02;12.63;;;9.02;;
70975;SDS011;58635;51.198;6.010;2022-11-15T02:10:28;14.82;;;9.20;;
70975;SDS011;58635;51.198;6.010;2022-11-15T02:12:54;14.85;;;9.50;;
70975;SDS011;58635;51.198;6.010;2022-11-15T02:15:21;14.73;;;8.55;;
70975;SDS011;58635;51.198;6.010;2022-11-15T02:18:02;14.43;;;9.30;;
70975;SDS011;58635;51.198;6.010;2022-11-15T02:21:10;11.23;;;8.40;;
70975;SDS011;58635;51.198;6.010;2022-11-15T02:37:13;11.93;;;8.38;;
70975;SDS011;58635;51.198;6.010;2022-11-15T02:42:18;11.35;;;8.73;;
70975;SDS011;58635;51.198;6.010;2022-11-15T02:45:07;12.30;;;8.57;;
70975;SDS011;58635;51.198;6.010;2022-11-15T02:47:41;10.85;;;8.32;;
70975;SDS011;58635;51.198;6.010;2022-11-15T02:50:13;13.80;;;9.05;;
70975;SDS011;58635;51.198;6.010;2022-11-15T02:52:44;11.95;;;8.07;;
70975;SDS011;58635;51.198;6.010;2022-11-15T02:57:59;11.25;;;8.35;;
70975;SDS011;58635;51.198;6.010;2022-11-15T03:09:04;12.90;;;8.82;;
70975;SDS011;58635;51.198;6.010;2022-11-15T03:11:37;10.00;;;7.50;;
70975;SDS011;58635;51.198;6.010;2022-11-15T03:22:08;10.80;;;8.13;;
70975;SDS011;58635;51.198;6.010;2022-11-15T03:24:39;10.38;;;7.57;;
70975;SDS011;58635;51.198;6.010;2022-11-15T03:27:08;10.52;;;7.93;;
70975;SDS011;58635;51.198;6.010;2022-11-15T03:29:38;11.60;;;8.20;;
70975;SDS011;58635;51.198;6.010;2022-11-15T03:32:09;11.15;;;8.10;;
70975;SDS011;58635;51.198;6.010;2022-11-15T03:37:06;12.07;;;7.28;;
70975;SDS011;58635;51.198;6.010;2022-11-15T03:39:32;11.65;;;7.75;;
70975;SDS011;58635;51.198;6.010;2022-11-15T03:50:09;11.80;;;7.75;;
70975;SDS011;58635;51.198;6.010;2022-11-15T03:52:37;11.48;;;7.18;;
70975;SDS011;58635;51.198;6.010;2022-11-15T03:55:06;12.32;;;7.45;;
70975;SDS011;58635;51.198;6.010;2022-11-15T03:57:33;11.45;;;7.68;;
70975;SDS011;58635;51.198;6.010;2022-11-15T03:59:58;9.68;;;7.00;;
70975;SDS011;58635;51.198;6.010;2022-11-15T04:02:24;10.65;;;7.15;;
70975;SDS011;58635;51.198;6.010;2022-11-15T04:04:49;10.68;;;7.68;;
70975;SDS011;58635;51.198;6.010;2022-11-15T04:07:15;10.75;;;6.75;;
70975;SDS011;58635;51.198;6.010;2022-11-15T04:09:40;10.25;;;7.20;;
70975;SDS011;58635;51.198;6.010;2022-11-15T04:12:24;11.68;;;7.40;;
70975;SDS011;58635;51.198;6.010;2022-11-15T04:15:08;11.15;;;7.72;;
70975;SDS011;58635;51.198;6.010;2022-11-15T04:23:21;7.72;;;5.75;;
70975;SDS011;58635;51.198;6.010;2022-11-15T04:26:10;9.48;;;6.57;;
70975;SDS011;58635;51.198;6.010;2022-11-15T04:28:37;10.00;;;6.47;;
70975;SDS011;58635;51.198;6.010;2022-11-15T04:31:23;11.75;;;7.22;;
70975;SDS011;58635;51.198;6.010;2022-11-15T04:33:49;9.23;;;6.72;;
70975;SDS011;58635;51.198;6.010;2022-11-15T04:36:14;10.30;;;6.35;;
70975;SDS011;58635;51.198;6.010;2022-11-15T04:38:58;10.80;;;6.35;;
70975;SDS011;58635;51.198;6.010;2022-11-15T04:41:23;10.68;;;6.65;;
70975;SDS011;58635;51.198;6.010;2022-11-15T04:43:49;8.45;;;7.00;;
70975;SDS011;58635;51.198;6.010;2022-11-15T04:46:14;7.85;;;6.25;;
70975;SDS011;58635;51.198;6.010;2022-11-15T04:48:40;9.23;;;6.47;;
70975;SDS011;58635;51.198;6.010;2022-11-15T04:51:05;7.82;;;6.03;;
70975;SDS011;58635;51.198;6.010;2022-11-15T04:53:31;8.98;;;6.32;;
70975;SDS011;58635;51.198;6.010;2022-11-15T04:55:56;9.63;;;6.30;;
70975;SDS011;58635;51.198;6.010;2022-11-15T04:58:21;10.73;;;6.53;;
70975;SDS011;58635;51.198;6.010;2022-11-15T05:00:47;8.18;;;6.20;;
70975;SDS011;58635;51.198;6.010;2022-11-15T05:03:12;8.45;;;5.45;;
70975;SDS011;58635;51.198;6.010;2022-11-15T05:05:57;8.13;;;5.35;;
70975;SDS011;58635;51.198;6.010;2022-11-15T05:08:22;8.43;;;6.20;;
70975;SDS011;58635;51.198;6.010;2022-11-15T05:10:48;7.90;;;6.10;;
70975;SDS011;58635;51.198;6.010;2022-11-15T05:13:13;9.82;;;6.50;;
70975;SDS011;58635;51.198;6.010;2022-11-15T05:15:38;9.27;;;6.50;;
70975;SDS011;58635;51.198;6.010;2022-11-15T05:18:04;11.05;;;6.78;;
70975;SDS011;58635;51.198;6.010;2022-11-15T05:20:29;10.30;;;6.28;;
70975;SDS011;58635;51.198;6.010;2022-11-15T05:22:55;10.27;;;6.40;;
70975;SDS011;58635;51.198;6.010;2022-11-15T05:25:21;8.68;;;6.53;;
70975;SDS011;58635;51.198;6.010;2022-11-15T05:27:47;10.90;;;6.35;;
70975;SDS011;58635;51.198;6.010;2022-11-15T05:30:13;8.65;;;6.15;;
70975;SDS011;58635;51.198;6.010;2022-11-15T05:32:39;7.93;;;5.90;;
70975;SDS011;58635;51.198;6.010;2022-11-15T05:35:05;8.98;;;5.93;;
70975;SDS011;58635;51.198;6.010;2022-11-15T05:37:33;9.57;;;6.38;;
70975;SDS011;58635;51.198;6.010;2022-11-15T05:39:59;7.18;;;5.60;;
70975;SDS011;58635;51.198;6.010;2022-11-15T05:42:24;10.35;;;6.05;;
70975;SDS011;58635;51.198;6.010;2022-11-15T05:44:52;9.05;;;5.53;;
70975;SDS011;58635;51.198;6.010;2022-11-15T05:47:21;10.00;;;6.10;;
70975;SDS011;58635;51.198;6.010;2022-11-15T05:49:50;7.80;;;5.63;;
70975;SDS011;58635;51.198;6.010;2022-11-15T05:52:19;7.90;;;6.07;;
70975;SDS011;58635;51.198;6.010;2022-11-15T05:54:47;10.95;;;6.25;;
70975;SDS011;58635;51.198;6.010;2022-11-15T05:57:13;8.02;;;5.90;;
70975;SDS011;58635;51.198;6.010;2022-11-15T05:59:39;8.05;;;5.55;;
70975;SDS011;58635;51.198;6.010;2022-11-15T06:02:06;7.95;;;5.20;;
70975;SDS011;58635;51.198;6.010;2022-11-15T06:04:31;9.80;;;5.40;;
70975;SDS011;58635;51.198;6.010;2022-11-15T06:06:57;7.13;;;5.30;;
70975;SDS011;58635;51.198;6.010;2022-11-15T06:09:23;8.77;;;5.28;;
70975;SDS011;58635;51.198;6.010;2022-11-15T06:11:49;7.40;;;5.20;;
70975;SDS011;58635;51.198;6.010;2022-11-15T06:14:14;7.00;;;5.47;;
70975;SDS011;58635;51.198;6.010;2022-11-15T06:16:40;7.97;;;5.15;;
70975;SDS011;58635;51.198;6.010;2022-11-15T06:19:06;8.48;;;5.53;;
70975;SDS011;58635;51.198;6.010;2022-11-15T06:21:32;6.55;;;4.97;;
70975;SDS011;58635;51.198;6.010;2022-11-15T06:23:57;7.78;;;5.18;;
70975;SDS011;58635;51.198;6.010;2022-11-15T06:26:22;5.60;;;4.10;;
70975;SDS011;58635;51.198;6.010;2022-11-15T06:28:48;4.95;;;3.05;;
70975;SDS011;58635;51.198;6.010;2022-11-15T06:31:13;3.60;;;2.17;;
70975;SDS011;58635;51.198;6.010;2022-11-15T06:33:39;2.80;;;1.80;;
70975;SDS011;58635;51.198;6.010;2022-11-15T06:36:05;2.95;;;1.75;;
70975;SDS011;58635;51.198;6.010;2022-11-15T06:38:33;4.90;;;2.05;;
70975;SDS011;58635;51.198;6.010;2022-11-15T06:41:02;4.22;;;1.70;;
70975;SDS011;58635;51.198;6.010;2022-11-15T06:43:30;4.13;;;1.75;;
70975;SDS011;58635;51.198;6.010;2022-11-15T06:45:56;4.25;;;1.98;;
70975;SDS011;58635;51.198;6.010;2022-11-15T06:48:23;4.45;;;1.80;;
70975;SDS011;58635;51.198;6.010;2022-11-15T06:50:52;4.32;;;1.83;;
70975;SDS011;58635;51.198;6.010;2022-11-15T06:53:21;4.20;;;2.45;;
70975;SDS011;58635;51.198;6.010;2022-11-15T06:55:47;4.45;;;1.80;;
70975;SDS011;58635;51.198;6.010;2022-11-15T06:58:13;4.85;;;2.38;;
70975;SDS011;58635;51.198;6.010;2022-11-15T07:00:38;6.70;;;1.77;;
70975;SDS011;58635;51.198;6.010;2022-11-15T07:03:04;3.90;;;1.95;;
70975;SDS011;58635;51.198;6.010;2022-11-15T07:05:29;3.40;;;1.80;;
70975;SDS011;58635;51.198;6.010;2022-11-15T07:07:55;5.38;;;2.10;;
70975;SDS011;58635;51.198;6.010;2022-11-15T07:10:22;4.82;;;2.17;;
70975;SDS011;58635;51.198;6.010;2022-11-15T07:12:50;3.40;;;1.80;;
70975;SDS011;58635;51.198;6.010;2022-11-15T07:15:19;4.75;;;2.30;;
70975;SDS011;58635;51.198;6.010;2022-11-15T07:17:46;5.32;;;2.90;;
70975;SDS011;58635;51.198;6.010;2022-11-15T07:20:12;5.20;;;2.10;;
70975;SDS011;58635;51.198;6.010;2022-11-15T07:22:38;3.67;;;2.00;;
70975;SDS011;58635;51.198;6.010;2022-11-15T07:25:04;3.58;;;1.80;;
70975;SDS011;58635;51.198;6.010;2022-11-15T07:27:30;5.85;;;2.00;;
70975;SDS011;58635;51.198;6.010;2022-11-15T07:29:55;4.38;;;1.92;;
70975;SDS011;58635;51.198;6.010;2022-11-15T07:32:21;3.92;;;2.10;;
70975;SDS011;58635;51.198;6.010;2022-11-15T07:34:46;3.40;;;1.92;;
70975;SDS011;58635;51.198;6.010;2022-11-15T07:37:11;4.70;;;2.65;;
70975;SDS011;58635;51.198;6.010;2022-11-15T07:39:37;5.80;;;3.17;;
70975;SDS011;58635;51.198;6.010;2022-11-15T07:42:02;4.72;;;2.50;;
70975;SDS011;58635;51.198;6.010;2022-11-15T07:44:47;6.57;;;2.20;;
70975;SDS011;58635;51.198;6.010;2022-11-15T07:47:12;5.88;;;2.28;;
70975;SDS011;58635;51.198;6.010;2022-11-15T07:49:38;3.53;;;1.98;;
70975;SDS011;58635;51.198;6.010;2022-11-15T07:52:03;3.17;;;1.90;;
70975;SDS011;58635;51.198;6.010;2022-11-15T07:54:28;4.47;;;2.10;;
70975;SDS011;58635;51.198;6.010;2022-11-15T07:56:54;5.15;;;2.05;;
70975;SDS011;58635;51.198;6.010;2022-11-15T07:59:19;4.07;;;2.03;;
70975;SDS011;58635;51.198;6.010;2022-11-15T08:01:45;5.10;;;2.13;;
70975;SDS011;58635;51.198;6.010;2022-11-15T08:04:10;6.45;;;1.95;;
70975;SDS011;58635;51.198;6.010;2022-11-15T08:06:37;4.10;;;1.83;;
70975;SDS011;58635;51.198;6.010;2022-11-15T08:09:02;4.63;;;1.63;;
70975;SDS011;58635;51.198;6.010;2022-11-15T08:11:28;2.63;;;1.52;;
70975;SDS011;58635;51.198;6.010;2022-11-15T08:13:53;4.03;;;1.50;;
70975;SDS011;58635;51.198;6.010;2022-11-15T08:16:18;3.40;;;1.17;;
70975;SDS011;58635;51.198;6.010;2022-11-15T08:18:44;2.50;;;1.20;;
70975;SDS011;58635;51.198;6.010;2022-11-15T08:21:09;3.45;;;1.33;;
70975;SDS011;58635;51.198;6.010;2022-11-15T08:23:39;3.15;;;1.40;;
70975;SDS011;58635;51.198;6.010;2022-11-15T08:26:05;3.47;;;2.35;;
70975;SDS011;58635;51.198;6.010;2022-11-15T08:28:31;3.80;;;1.60;;
70975;SDS011;58635;51.198;6.010;2022-11-15T08:30:57;5.57;;;2.00;;
70975;SDS011;58635;51.198;6.010;2022-11-15T08:33:22;4.88;;;1.30;;
70975;SDS011;58635;51.198;6.010;2022-11-15T08:35:48;2.53;;;1.13;;
70975;SDS011;58635;51.198;6.010;2022-11-15T08:38:14;4.43;;;1.30;;
70975;SDS011;58635;51.198;6.010;2022-11-15T08:40:39;4.85;;;1.30;;
70975;SDS011;58635;51.198;6.010;2022-11-15T08:43:05;4.95;;;1.13;;
70975;SDS011;58635;51.198;6.010;2022-11-15T08:45:31;2.75;;;1.10;;
70975;SDS011;58635;51.198;6.010;2022-11-15T08:47:56;2.40;;;1.20;;
70975;SDS011;58635;51.198;6.010;2022-11-15T08:50:22;2.53;;;1.00;;
70975;SDS011;58635;51.198;6.010;2022-11-15T08:52:47;1.92;;;1.17;;
70975;SDS011;58635;51.198;6.010;2022-11-15T08:55:13;2.28;;;0.95;;
70975;SDS011;58635;51.198;6.010;2022-11-15T08:57:39;2.47;;;1.23;;
70975;SDS011;58635;51.198;6.010;2022-11-15T09:00:05;2.28;;;1.20;;
70975;SDS011;58635;51.198;6.010;2022-11-15T09:02:31;2.50;;;0.88;;
70975;SDS011;58635;51.198;6.010;2022-11-15T09:04:56;5.10;;;2.50;;
70975;SDS011;58635;51.198;6.010;2022-11-15T09:07:22;4.88;;;1.40;;
70975;SDS011;58635;51.198;6.010;2022-11-15T09:09:47;3.20;;;1.23;;
70975;SDS011;58635;51.198;6.010;2022-11-15T09:12:13;3.08;;;1.02;;
70975;SDS011;58635;51.198;6.010;2022-11-15T09:14:38;4.90;;;1.90;;
70975;SDS011;58635;51.198;6.010;2022-11-15T09:17:06;3.65;;;1.83;;
70975;SDS011;58635;51.198;6.010;2022-11-15T09:19:33;5.20;;;1.13;;
70975;SDS011;58635;51.198;6.010;2022-11-15T09:21:58;3.72;;;1.00;;
70975;SDS011;58635;51.198;6.010;2022-11-15T09:24:24;2.08;;;0.80;;
70975;SDS011;58635;51.198;6.010;2022-11-15T09:26:50;4.32;;;1.10;;
70975;SDS011;58635;51.198;6.010;2022-11-15T09:29:16;2.53;;;0.98;;
70975;SDS011;58635;51.198;6.010;2022-11-15T09:31:42;3.83;;;1.00;;
70975;SDS011;58635;51.198;6.010;2022-11-15T09:34:07;3.95;;;1.98;;
70975;SDS011;58635;51.198;6.010;2022-11-15T09:36:33;3.63;;;1.10;;
70975;SDS011;58635;51.198;6.010;2022-11-15T09:38:58;1.48;;;0.90;;
70975;SDS011;58635;51.198;6.010;2022-11-15T09:41:32;4.18;;;1.10;;
70975;SDS011;58635;51.198;6.010;2022-11-15T09:44:07;2.42;;;0.98;;
70975;SDS011;58635;51.198;6.010;2022-11-15T09:49:28;2.97;;;0.93;;
70975;SDS011;58635;51.198;6.010;2022-11-15T09:51:55;2.50;;;0.98;;
70975;SDS011;58635;51.198;6.010;2022-11-15T10:04:43;4.45;;;1.05;;
70975;SDS011;58635;51.198;6.010;2022-11-15T10:07:16;3.35;;;1.15;;
70975;SDS011;58635;51.198;6.010;2022-11-15T10:09:46;2.30;;;0.80;;
70975;SDS011;58635;51.198;6.010;2022-11-15T10:12:16;2.75;;;0.90;;
70975;SDS011;58635;51.198;6.010;2022-11-15T10:14:42;4.30;;;1.05;;
70975;SDS011;58635;51.198;6.010;2022-11-15T10:20:09;2.13;;;0.90;;
70975;SDS011;58635;51.198;6.010;2022-11-15T10:22:43;1.83;;;0.80;;
70975;SDS011;58635;51.198;6.010;2022-11-15T10:25:16;2.97;;;1.00;;
70975;SDS011;58635;51.198;6.010;2022-11-15T10:27:56;4.72;;;1.58;;
70975;SDS011;58635;51.198;6.010;2022-11-15T10:30:38;5.32;;;1.15;;
70975;SDS011;58635;51.198;6.010;2022-11-15T10:35:46;3.40;;;1.10;;
70975;SDS011;58635;51.198;6.010;2022-11-15T10:38:12;3.05;;;1.02;;
70975;SDS011;58635;51.198;6.010;2022-11-15T10:40:38;3.28;;;1.00;;
70975;SDS011;58635;51.198;6.010;2022-11-15T10:45:34;3.13;;;1.00;;
70975;SDS011;58635;51.198;6.010;2022-11-15T10:50:37;3.45;;;1.05;;
70975;SDS011;58635;51.198;6.010;2022-11-15T10:53:03;4.07;;;1.00;;
70975;SDS011;58635;51.198;6.010;2022-11-15T10:55:36;3.03;;;1.10;;
70975;SDS011;58635;51.198;6.010;2022-11-15T10:58:09;2.22;;;1.10;;
70975;SDS011;58635;51.198;6.010;2022-11-15T11:00:44;3.83;;;1.10;;
70975;SDS011;58635;51.198;6.010;2022-11-15T11:03:25;2.53;;;0.80;;
70975;SDS011;58635;51.198;6.010;2022-11-15T11:06:06;2.42;;;0.90;;
70975;SDS011;58635;51.198;6.010;2022-11-15T11:08:36;2.70;;;0.80;;
70975;SDS011;58635;51.198;6.010;2022-11-15T11:11:03;2.53;;;1.00;;
70975;SDS011;58635;51.198;6.010;2022-11-15T11:19:18;3.47;;;1.10;;
70975;SDS011;58635;51.198;6.010;2022-11-15T11:24:24;3.95;;;1.00;;
70975;SDS011;58635;51.198;6.010;2022-11-15T11:29:38;3.08;;;0.80;;
70975;SDS011;58635;51.198;6.010;2022-11-15T11:37:49;5.28;;;1.10;;
70975;SDS011;58635;51.198;6.010;2022-11-15T11:40:24;6.32;;;1.13;;
70975;SDS011;58635;51.198;6.010;2022-11-15T11:43:00;3.78;;;1.17;;
70975;SDS011;58635;51.198;6.010;2022-11-15T11:46:02;2.45;;;0.70;;
70975;SDS011;58635;51.198;6.010;2022-11-15T11:51:22;3.00;;;0.90;;
70975;SDS011;58635;51.198;6.010;2022-11-15T11:56:50;3.88;;;1.00;;
70975;SDS011;58635;51.198;6.010;2022-11-15T11:59:35;2.80;;;1.00;;
70975;SDS011;58635;51.198;6.010;2022-11-15T12:02:29;3.85;;;1.30;;
70975;SDS011;58635;51.198;6.010;2022-11-15T12:05:09;3.67;;;1.00;;
70975;SDS011;58635;51.198;6.010;2022-11-15T12:07:40;7.00;;;1.27;;
70975;SDS011;58635;51.198;6.010;2022-11-15T12:13:02;4.10;;;0.80;;
70975;SDS011;58635;51.198;6.010;2022-11-15T12:15:26;5.25;;;1.30;;
70975;SDS011;58635;51.198;6.010;2022-11-15T12:17:55;4.65;;;1.05;;
70975;SDS011;58635;51.198;6.010;2022-11-15T12:20:23;5.38;;;1.00;;
70975;SDS011;58635;51.198;6.010;2022-11-15T12:22:54;3.20;;;0.80;;
70975;SDS011;58635;51.198;6.010;2022-11-15T12:25:28;3.47;;;1.00;;
70975;SDS011;58635;51.198;6.010;2022-11-15T12:30:42;4.32;;;1.15;;
70975;SDS011;58635;51.198;6.010;2022-11-15T12:33:36;3.13;;;1.00;;
70975;SDS011;58635;51.198;6.010;2022-11-15T12:36:08;3.30;;;0.80;;
70975;SDS011;58635;51.198;6.010;2022-11-15T12:41:20;3.75;;;0.80;;
70975;SDS011;58635;51.198;6.010;2022-11-15T12:43:48;2.63;;;0.80;;
70975;SDS011;58635;51.198;6.010;2022-11-15T12:52:03;2.67;;;0.80;;
70975;SDS011;58635;51.198;6.010;2022-11-15T12:56:51;2.67;;;0.70;;
70975;SDS011;58635;51.198;6.010;2022-11-15T13:02:31;6.32;;;0.90;;
70975;SDS011;58635;51.198;6.010;2022-11-15T13:17:43;4.60;;;1.38;;
70975;SDS011;58635;51.198;6.010;2022-11-15T13:22:39;4.97;;;1.23;;
70975;SDS011;58635;51.198;6.010;2022-11-15T13:25:39;3.20;;;0.90;;
70975;SDS011;58635;51.198;6.010;2022-11-15T13:30:41;3.67;;;0.85;;
70975;SDS011;58635;51.198;6.010;2022-11-15T13:33:25;3.20;;;1.10;;
70975;SDS011;58635;51.198;6.010;2022-11-15T13:36:00;4.28;;;1.17;;
70975;SDS011;58635;51.198;6.010;2022-11-15T13:38:54;6.70;;;1.50;;
70975;SDS011;58635;51.198;6.010;2022-11-15T13:41:23;4.25;;;1.10;;
70975;SDS011;58635;51.198;6.010;2022-11-15T13:43:51;4.10;;;1.20;;
70975;SDS011;58635;51.198;6.010;2022-11-15T13:48:48;6.68;;;1.17;;
70975;SDS011;58635;51.198;6.010;2022-11-15T13:51:19;3.70;;;1.13;;
70975;SDS011;58635;51.198;6.010;2022-11-15T13:54:06;5.22;;;1.10;;
70975;SDS011;58635;51.198;6.010;2022-11-15T13:56:40;4.97;;;1.15;;
70975;SDS011;58635;51.198;6.010;2022-11-15T13:59:13;4.90;;;1.10;;
70975;SDS011;58635;51.198;6.010;2022-11-15T14:01:43;3.47;;;1.10;;
70975;SDS011;58635;51.198;6.010;2022-11-15T14:04:09;2.67;;;1.00;;
70975;SDS011;58635;51.198;6.010;2022-11-15T14:06:43;4.32;;;1.27;;
70975;SDS011;58635;51.198;6.010;2022-11-15T14:12:19;4.28;;;1.42;;
70975;SDS011;58635;51.198;6.010;2022-11-15T14:14:52;6.38;;;2.30;;
70975;SDS011;58635;51.198;6.010;2022-11-15T14:23:41;5.63;;;1.50;;
70975;SDS011;58635;51.198;6.010;2022-11-15T14:25:56;6.30;;;1.42;;
70975;SDS011;58635;51.198;6.010;2022-11-15T14:30:48;5.00;;;1.85;;
70975;SDS011;58635;51.198;6.010;2022-11-15T14:33:30;6.18;;;1.90;;
70975;SDS011;58635;51.198;6.010;2022-11-15T14:36:02;4.47;;;1.40;;
70975;SDS011;58635;51.198;6.010;2022-11-15T14:38:31;6.50;;;1.33;;
70975;SDS011;58635;51.198;6.010;2022-11-15T14:40:56;4.55;;;1.23;;
70975;SDS011;58635;51.198;6.010;2022-11-15T14:43:22;4.60;;;1.02;;
70975;SDS011;58635;51.198;6.010;2022-11-15T14:45:47;4.13;;;1.27;;
70975;SDS011;58635;51.198;6.010;2022-11-15T14:48:13;4.20;;;1.20;;
70975;SDS011;58635;51.198;6.010;2022-11-15T14:50:38;4.72;;;1.10;;
70975;SDS011;58635;51.198;6.010;2022-11-15T14:53:04;5.60;;;1.75;;
70975;SDS011;58635;51.198;6.010;2022-11-15T14:55:34;3.58;;;1.30;;
70975;SDS011;58635;51.198;6.010;2022-11-15T14:58:04;6.85;;;1.20;;
70975;SDS011;58635;51.198;6.010;2022-11-15T15:00:32;3.25;;;0.98;;
70975;SDS011;58635;51.198;6.010;2022-11-15T15:02:57;5.05;;;1.67;;
70975;SDS011;58635;51.198;6.010;2022-11-15T15:05:25;3.17;;;1.40;;
70975;SDS011;58635;51.198;6.010;2022-11-15T15:07:58;2.92;;;1.40;;
70975;SDS011;58635;51.198;6.010;2022-11-15T15:10:24;3.75;;;1.00;;
70975;SDS011;58635;51.198;6.010;2022-11-15T15:12:51;2.22;;;1.00;;
70975;SDS011;58635;51.198;6.010;2022-11-15T15:15:17;2.80;;;1.25;;
70975;SDS011;58635;51.198;6.010;2022-11-15T15:17:47;3.90;;;1.20;;
70975;SDS011;58635;51.198;6.010;2022-11-15T15:20:13;3.55;;;1.40;;
70975;SDS011;58635;51.198;6.010;2022-11-15T15:22:39;3.75;;;1.38;;
70975;SDS011;58635;51.198;6.010;2022-11-15T15:27:52;4.40;;;1.42;;
70975;SDS011;58635;51.198;6.010;2022-11-15T15:30:17;3.38;;;1.33;;
70975;SDS011;58635;51.198;6.010;2022-11-15T15:32:43;2.85;;;1.20;;
70975;SDS011;58635;51.198;6.010;2022-11-15T15:35:11;3.55;;;1.23;;
70975;SDS011;58635;51.198;6.010;2022-11-15T15:37:37;3.65;;;1.30;;
70975;SDS011;58635;51.198;6.010;2022-11-15T15:40:03;3.92;;;1.30;;
70975;SDS011;58635;51.198;6.010;2022-11-15T15:42:42;3.35;;;1.42;;
70975;SDS011;58635;51.198;6.010;2022-11-15T15:45:08;4.80;;;1.40;;
70975;SDS011;58635;51.198;6.010;2022-11-15T15:47:34;4.22;;;1.52;;
70975;SDS011;58635;51.198;6.010;2022-11-15T15:49:59;3.95;;;1.50;;
70975;SDS011;58635;51.198;6.010;2022-11-15T15:52:25;3.72;;;1.50;;
70975;SDS011;58635;51.198;6.010;2022-11-15T15:54:50;4.15;;;1.60;;
70975;SDS011;58635;51.198;6.010;2022-11-15T15:57:15;2.55;;;1.50;;
70975;SDS011;58635;51.198;6.010;2022-11-15T15:59:41;3.85;;;1.50;;
70975;SDS011;58635;51.198;6.010;2022-11-15T16:02:08;4.20;;;1.40;;
70975;SDS011;58635;51.198;6.010;2022-11-15T16:04:37;3.70;;;2.10;;
70975;SDS011;58635;51.198;6.010;2022-11-15T16:07:03;4.28;;;2.83;;
70975;SDS011;58635;51.198;6.010;2022-11-15T16:09:29;2.88;;;1.67;;
70975;SDS011;58635;51.198;6.010;2022-11-15T16:12:13;4.28;;;1.70;;
70975;SDS011;58635;51.198;6.010;2022-11-15T16:14:41;2.20;;;1.60;;
70975;SDS011;58635;51.198;6.010;2022-11-15T16:17:08;3.60;;;1.67;;
70975;SDS011;58635;51.198;6.010;2022-11-15T16:19:40;4.20;;;1.40;;
70975;SDS011;58635;51.198;6.010;2022-11-15T16:22:06;3.22;;;1.60;;
70975;SDS011;58635;51.198;6.010;2022-11-15T16:24:31;3.58;;;1.65;;
70975;SDS011;58635;51.198;6.010;2022-11-15T16:26:57;4.20;;;1.85;;
70975;SDS011;58635;51.198;6.010;2022-11-15T16:29:22;4.53;;;1.88;;
70975;SDS011;58635;51.198;6.010;2022-11-15T16:31:47;6.35;;;2.20;;
70975;SDS011;58635;51.198;6.010;2022-11-15T16:34:13;4.05;;;2.00;;
70975;SDS011;58635;51.198;6.010;2022-11-15T16:36:38;3.92;;;2.20;;
70975;SDS011;58635;51.198;6.010;2022-11-15T16:39:04;6.95;;;2.20;;
70975;SDS011;58635;51.198;6.010;2022-11-15T16:41:29;4.32;;;2.10;;
70975;SDS011;58635;51.198;6.010;2022-11-15T16:43:55;3.95;;;2.30;;
70975;SDS011;58635;51.198;6.010;2022-11-15T16:46:24;6.28;;;2.85;;
70975;SDS011;58635;51.198;6.010;2022-11-15T16:48:51;7.43;;;3.75;;
70975;SDS011;58635;51.198;6.010;2022-11-15T16:51:18;6.93;;;3.55;;
70975;SDS011;58635;51.198;6.010;2022-11-15T16:53:44;7.25;;;5.22;;
70975;SDS011;58635;51.198;6.010;2022-11-15T16:58:48;8.05;;;5.20;;
70975;SDS011;58635;51.198;6.010;2022-11-15T17:01:22;9.82;;;6.10;;
70975;SDS011;58635;51.198;6.010;2022-11-15T17:03:52;10.02;;;5.85;;
70975;SDS011;58635;51.198;6.010;2022-11-15T17:06:18;7.95;;;5.10;;
70975;SDS011;58635;51.198;6.010;2022-11-15T17:08:44;8.82;;;6.22;;
70975;SDS011;58635;51.198;6.010;2022-11-15T17:11:10;9.57;;;5.60;;
70975;SDS011;58635;51.198;6.010;2022-11-15T17:13:39;9.43;;;5.43;;
70975;SDS011;58635;51.198;6.010;2022-11-15T17:16:05;8.15;;;4.88;;
70975;SDS011;58635;51.198;6.010;2022-11-15T17:18:36;8.13;;;4.68;;
70975;SDS011;58635;51.198;6.010;2022-11-15T17:21:05;7.53;;;3.90;;
70975;SDS011;58635;51.198;6.010;2022-11-15T17:23:36;8.32;;;4.20;;
70975;SDS011;58635;51.198;6.010;2022-11-15T17:26:02;6.40;;;3.38;;